sensor_id;sensor_type;location;lat;lon;timestamp;P1;durP1;ratioP1;P2;durP2;ratioP2
24901;SDS011;31328;51.402;0.016;2023-01-23T00:00:53;37.37;;;22.77;;
24901;SDS011;31328;51.402;0.016;2023-01-23T00:03:20;35.33;;;22.83;;
24901;SDS011;31328;51.402;0.016;2023-01-23T00:06:00;43.23;;;24.37;;
24901;SDS011;31328;51.402;0.016;2023-01-23T00:08:32;43.53;;;23.83;;
24901;SDS011;31328;51.402;0.016;2023-01-23T00:11:03;39.60;;;24.33;;
24901;SDS011;31328;51.402;0.016;2023-01-23T00:13:33;42.40;;;23.20;;
24901;SDS011;31328;51.402;0.016;2023-01-23T00:16:07;40.63;;;23.47;;
24901;SDS011;31328;51.402;0.016;2023-01-23T00:18:36;42.47;;;23.10;;
24901;SDS011;31328;51.402;0.016;2023-01-23T00:21:03;40.80;;;23.77;;
24901;SDS011;31328;51.402;0.016;2023-01-23T00:23:31;39.47;;;23.83;;
24901;SDS011;31328;51.402;0.016;2023-01-23T00:26:02;39.30;;;23.73;;
24901;SDS011;31328;51.402;0.016;2023-01-23T00:28:30;41.03;;;24.00;;
24901;SDS011;31328;51.402;0.016;2023-01-23T00:31:03;43.73;;;23.20;;
24901;SDS011;31328;51.402;0.016;2023-01-23T00:33:30;30.48;;;18.98;;
24901;SDS011;31328;51.402;0.016;2023-01-23T00:35:56;37.90;;;20.87;;
24901;SDS011;31328;51.402;0.016;2023-01-23T00:38:23;39.30;;;22.93;;
24901;SDS011;31328;51.402;0.016;2023-01-23T00:40:49;44.50;;;25.20;;
24901;SDS011;31328;51.402;0.016;2023-01-23T00:43:15;38.10;;;22.17;;
24901;SDS011;31328;51.402;0.016;2023-01-23T00:45:42;37.93;;;22.57;;
24901;SDS011;31328;51.402;0.016;2023-01-23T00:48:08;40.10;;;21.37;;
24901;SDS011;31328;51.402;0.016;2023-01-23T00:50:34;44.70;;;23.63;;
24901;SDS011;31328;51.402;0.016;2023-01-23T00:53:02;38.93;;;23.17;;
24901;SDS011;31328;51.402;0.016;2023-01-23T00:55:28;44.37;;;23.73;;
24901;SDS011;31328;51.402;0.016;2023-01-23T00:57:54;34.53;;;20.30;;
24901;SDS011;31328;51.402;0.016;2023-01-23T01:00:21;40.43;;;22.00;;
24901;SDS011;31328;51.402;0.016;2023-01-23T01:02:47;38.13;;;20.90;;
24901;SDS011;31328;51.402;0.016;2023-01-23T01:05:15;34.83;;;21.00;;
24901;SDS011;31328;51.402;0.016;2023-01-23T01:07:46;38.97;;;21.97;;
24901;SDS011;31328;51.402;0.016;2023-01-23T01:10:14;33.73;;;19.50;;
24901;SDS011;31328;51.402;0.016;2023-01-23T01:12:40;38.47;;;22.27;;
24901;SDS011;31328;51.402;0.016;2023-01-23T01:15:07;37.93;;;19.90;;
24901;SDS011;31328;51.402;0.016;2023-01-23T01:17:34;33.90;;;20.20;;
24901;SDS011;31328;51.402;0.016;2023-01-23T01:20:02;37.03;;;20.80;;
24901;SDS011;31328;51.402;0.016;2023-01-23T01:22:30;34.13;;;20.23;;
24901;SDS011;31328;51.402;0.016;2023-01-23T01:24:57;32.87;;;20.47;;
24901;SDS011;31328;51.402;0.016;2023-01-23T01:27:23;35.50;;;19.87;;
24901;SDS011;31328;51.402;0.016;2023-01-23T01:29:49;41.67;;;21.07;;
24901;SDS011;31328;51.402;0.016;2023-01-23T01:32:16;35.83;;;18.80;;
24901;SDS011;31328;51.402;0.016;2023-01-23T01:34:42;38.47;;;21.43;;
24901;SDS011;31328;51.402;0.016;2023-01-23T01:37:08;34.93;;;20.67;;
24901;SDS011;31328;51.402;0.016;2023-01-23T01:39:35;33.50;;;18.17;;
24901;SDS011;31328;51.402;0.016;2023-01-23T01:42:01;32.20;;;19.43;;
24901;SDS011;31328;51.402;0.016;2023-01-23T01:44:46;36.23;;;19.47;;
24901;SDS011;31328;51.402;0.016;2023-01-23T01:47:18;38.57;;;19.07;;
24901;SDS011;31328;51.402;0.016;2023-01-23T01:49:45;31.73;;;18.17;;
24901;SDS011;31328;51.402;0.016;2023-01-23T01:52:12;32.40;;;18.77;;
24901;SDS011;31328;51.402;0.016;2023-01-23T02:02:56;30.93;;;18.43;;
24901;SDS011;31328;51.402;0.016;2023-01-23T02:05:24;32.03;;;17.67;;
24901;SDS011;31328;51.402;0.016;2023-01-23T02:07:58;32.27;;;17.63;;
24901;SDS011;31328;51.402;0.016;2023-01-23T02:10:30;31.15;;;18.85;;
24901;SDS011;31328;51.402;0.016;2023-01-23T02:13:13;32.93;;;18.17;;
24901;SDS011;31328;51.402;0.016;2023-01-23T02:15:43;29.10;;;17.77;;
24901;SDS011;31328;51.402;0.016;2023-01-23T02:18:10;29.13;;;16.77;;
24901;SDS011;31328;51.402;0.016;2023-01-23T02:20:37;30.93;;;18.27;;
24901;SDS011;31328;51.402;0.016;2023-01-23T02:23:19;28.67;;;16.10;;
24901;SDS011;31328;51.402;0.016;2023-01-23T02:26:05;31.90;;;17.80;;
24901;SDS011;31328;51.402;0.016;2023-01-23T02:28:45;31.90;;;16.83;;
24901;SDS011;31328;51.402;0.016;2023-01-23T02:31:18;28.83;;;17.53;;
24901;SDS011;31328;51.402;0.016;2023-01-23T02:33:46;31.13;;;16.77;;
24901;SDS011;31328;51.402;0.016;2023-01-23T02:36:16;28.87;;;17.03;;
24901;SDS011;31328;51.402;0.016;2023-01-23T02:38:47;29.60;;;16.70;;
24901;SDS011;31328;51.402;0.016;2023-01-23T02:41:26;31.30;;;17.43;;
24901;SDS011;31328;51.402;0.016;2023-01-23T02:43:55;30.07;;;16.73;;
24901;SDS011;31328;51.402;0.016;2023-01-23T02:46:25;31.10;;;17.23;;
24901;SDS011;31328;51.402;0.016;2023-01-23T02:48:52;28.33;;;15.80;;
24901;SDS011;31328;51.402;0.016;2023-01-23T02:51:19;26.90;;;15.80;;
24901;SDS011;31328;51.402;0.016;2023-01-23T02:53:47;27.87;;;16.53;;
24901;SDS011;31328;51.402;0.016;2023-01-23T02:56:14;25.77;;;15.03;;
24901;SDS011;31328;51.402;0.016;2023-01-23T02:58:42;26.33;;;15.70;;
24901;SDS011;31328;51.402;0.016;2023-01-23T03:01:27;28.67;;;16.17;;
24901;SDS011;31328;51.402;0.016;2023-01-23T03:03:54;25.50;;;13.87;;
24901;SDS011;31328;51.402;0.016;2023-01-23T03:06:21;26.07;;;17.10;;
24901;SDS011;31328;51.402;0.016;2023-01-23T03:08:49;27.03;;;15.37;;
24901;SDS011;31328;51.402;0.016;2023-01-23T03:11:16;28.33;;;15.23;;
24901;SDS011;31328;51.402;0.016;2023-01-23T03:13:44;25.57;;;14.90;;
24901;SDS011;31328;51.402;0.016;2023-01-23T03:16:12;24.60;;;14.67;;
24901;SDS011;31328;51.402;0.016;2023-01-23T03:18:39;23.40;;;14.27;;
24901;SDS011;31328;51.402;0.016;2023-01-23T03:21:06;25.90;;;15.33;;
24901;SDS011;31328;51.402;0.016;2023-01-23T03:23:33;23.50;;;13.50;;
24901;SDS011;31328;51.402;0.016;2023-01-23T03:26:01;25.70;;;13.90;;
24901;SDS011;31328;51.402;0.016;2023-01-23T03:28:30;23.97;;;13.97;;
24901;SDS011;31328;51.402;0.016;2023-01-23T03:31:15;25.93;;;13.73;;
24901;SDS011;31328;51.402;0.016;2023-01-23T03:33:42;27.00;;;15.33;;
24901;SDS011;31328;51.402;0.016;2023-01-23T03:36:10;25.43;;;14.13;;
24901;SDS011;31328;51.402;0.016;2023-01-23T03:38:38;24.43;;;13.47;;
24901;SDS011;31328;51.402;0.016;2023-01-23T03:41:26;24.40;;;14.40;;
24901;SDS011;31328;51.402;0.016;2023-01-23T03:43:57;23.53;;;14.73;;
24901;SDS011;31328;51.402;0.016;2023-01-23T03:46:24;23.17;;;13.57;;
24901;SDS011;31328;51.402;0.016;2023-01-23T03:48:50;22.07;;;14.23;;
24901;SDS011;31328;51.402;0.016;2023-01-23T03:51:17;21.70;;;13.07;;
24901;SDS011;31328;51.402;0.016;2023-01-23T03:53:43;26.27;;;15.47;;
24901;SDS011;31328;51.402;0.016;2023-01-23T03:56:13;25.43;;;13.97;;
24901;SDS011;31328;51.402;0.016;2023-01-23T03:58:40;24.83;;;14.90;;
24901;SDS011;31328;51.402;0.016;2023-01-23T04:01:07;26.97;;;14.23;;
24901;SDS011;31328;51.402;0.016;2023-01-23T04:03:37;23.23;;;12.60;;
24901;SDS011;31328;51.402;0.016;2023-01-23T04:06:04;23.87;;;13.07;;
24901;SDS011;31328;51.402;0.016;2023-01-23T04:08:30;26.00;;;14.30;;
24901;SDS011;31328;51.402;0.016;2023-01-23T04:11:15;22.90;;;12.07;;
24901;SDS011;31328;51.402;0.016;2023-01-23T04:13:41;20.77;;;11.23;;
24901;SDS011;31328;51.402;0.016;2023-01-23T04:16:07;23.43;;;12.10;;
24901;SDS011;31328;51.402;0.016;2023-01-23T04:18:34;22.27;;;12.70;;
24901;SDS011;31328;51.402;0.016;2023-01-23T04:21:01;22.00;;;12.40;;
24901;SDS011;31328;51.402;0.016;2023-01-23T04:23:29;22.93;;;12.13;;
24901;SDS011;31328;51.402;0.016;2023-01-23T04:25:56;20.87;;;12.37;;
24901;SDS011;31328;51.402;0.016;2023-01-23T04:28:22;25.97;;;12.93;;
24901;SDS011;31328;51.402;0.016;2023-01-23T04:30:50;28.00;;;13.63;;
24901;SDS011;31328;51.402;0.016;2023-01-23T04:33:28;23.10;;;12.93;;
24901;SDS011;31328;51.402;0.016;2023-01-23T04:35:56;21.83;;;12.50;;
24901;SDS011;31328;51.402;0.016;2023-01-23T04:38:27;25.23;;;14.10;;
24901;SDS011;31328;51.402;0.016;2023-01-23T04:40:54;24.67;;;13.37;;
24901;SDS011;31328;51.402;0.016;2023-01-23T04:43:21;21.77;;;12.20;;
24901;SDS011;31328;51.402;0.016;2023-01-23T04:45:51;22.63;;;13.77;;
24901;SDS011;31328;51.402;0.016;2023-01-23T04:48:44;25.07;;;14.37;;
24901;SDS011;31328;51.402;0.016;2023-01-23T04:51:11;19.60;;;12.03;;
24901;SDS011;31328;51.402;0.016;2023-01-23T04:53:37;27.53;;;14.03;;
24901;SDS011;31328;51.402;0.016;2023-01-23T04:56:04;26.03;;;12.97;;
24901;SDS011;31328;51.402;0.016;2023-01-23T04:58:32;23.60;;;12.83;;
24901;SDS011;31328;51.402;0.016;2023-01-23T05:01:04;25.80;;;13.47;;
24901;SDS011;31328;51.402;0.016;2023-01-23T05:03:33;24.43;;;13.17;;
24901;SDS011;31328;51.402;0.016;2023-01-23T05:06:00;26.00;;;13.20;;
24901;SDS011;31328;51.402;0.016;2023-01-23T05:08:26;23.27;;;13.23;;
24901;SDS011;31328;51.402;0.016;2023-01-23T05:13:38;21.60;;;13.23;;
24901;SDS011;31328;51.402;0.016;2023-01-23T05:16:05;18.17;;;10.60;;
24901;SDS011;31328;51.402;0.016;2023-01-23T05:18:48;21.57;;;11.63;;
24901;SDS011;31328;51.402;0.016;2023-01-23T05:21:14;23.17;;;12.67;;
24901;SDS011;31328;51.402;0.016;2023-01-23T05:23:41;23.73;;;13.67;;
24901;SDS011;31328;51.402;0.016;2023-01-23T05:26:07;23.67;;;13.37;;
24901;SDS011;31328;51.402;0.016;2023-01-23T05:28:33;20.17;;;11.50;;
24901;SDS011;31328;51.402;0.016;2023-01-23T05:31:00;22.80;;;12.90;;
24901;SDS011;31328;51.402;0.016;2023-01-23T05:33:36;20.97;;;11.80;;
24901;SDS011;31328;51.402;0.016;2023-01-23T05:36:05;21.30;;;12.07;;
24901;SDS011;31328;51.402;0.016;2023-01-23T05:38:31;23.57;;;12.97;;
24901;SDS011;31328;51.402;0.016;2023-01-23T05:40:58;22.97;;;11.87;;
24901;SDS011;31328;51.402;0.016;2023-01-23T05:43:43;22.20;;;12.10;;
24901;SDS011;31328;51.402;0.016;2023-01-23T05:46:44;20.00;;;11.30;;
24901;SDS011;31328;51.402;0.016;2023-01-23T05:49:12;17.57;;;11.03;;
24901;SDS011;31328;51.402;0.016;2023-01-23T05:51:41;18.43;;;11.50;;
24901;SDS011;31328;51.402;0.016;2023-01-23T05:54:08;19.93;;;12.33;;
24901;SDS011;31328;51.402;0.016;2023-01-23T05:56:36;19.53;;;11.07;;
24901;SDS011;31328;51.402;0.016;2023-01-23T05:59:20;19.98;;;11.45;;
24901;SDS011;31328;51.402;0.016;2023-01-23T06:02:16;21.73;;;11.60;;
24901;SDS011;31328;51.402;0.016;2023-01-23T06:05:18;20.60;;;11.50;;
24901;SDS011;31328;51.402;0.016;2023-01-23T06:08:13;18.03;;;11.43;;
24901;SDS011;31328;51.402;0.016;2023-01-23T06:10:41;21.03;;;12.00;;
24901;SDS011;31328;51.402;0.016;2023-01-23T06:13:07;18.97;;;11.47;;
24901;SDS011;31328;51.402;0.016;2023-01-23T06:15:35;21.33;;;12.10;;
24901;SDS011;31328;51.402;0.016;2023-01-23T06:18:07;18.37;;;10.70;;
24901;SDS011;31328;51.402;0.016;2023-01-23T06:20:34;22.43;;;13.03;;
24901;SDS011;31328;51.402;0.016;2023-01-23T06:23:02;22.93;;;11.53;;
24901;SDS011;31328;51.402;0.016;2023-01-23T06:25:28;21.50;;;11.20;;
24901;SDS011;31328;51.402;0.016;2023-01-23T06:27:59;20.83;;;12.40;;
24901;SDS011;31328;51.402;0.016;2023-01-23T06:30:28;22.67;;;11.87;;
24901;SDS011;31328;51.402;0.016;2023-01-23T06:32:55;23.87;;;13.60;;
24901;SDS011;31328;51.402;0.016;2023-01-23T06:35:30;20.70;;;11.63;;
24901;SDS011;31328;51.402;0.016;2023-01-23T06:37:56;17.83;;;11.27;;
24901;SDS011;31328;51.402;0.016;2023-01-23T06:40:24;19.20;;;11.20;;
24901;SDS011;31328;51.402;0.016;2023-01-23T06:43:04;22.17;;;11.60;;
24901;SDS011;31328;51.402;0.016;2023-01-23T06:45:31;19.63;;;11.17;;
24901;SDS011;31328;51.402;0.016;2023-01-23T06:47:57;21.63;;;11.67;;
24901;SDS011;31328;51.402;0.016;2023-01-23T06:50:26;18.73;;;11.40;;
24901;SDS011;31328;51.402;0.016;2023-01-23T06:52:52;18.97;;;10.83;;
24901;SDS011;31328;51.402;0.016;2023-01-23T06:55:18;20.47;;;11.90;;
24901;SDS011;31328;51.402;0.016;2023-01-23T06:57:46;21.40;;;13.40;;
24901;SDS011;31328;51.402;0.016;2023-01-23T07:00:13;20.93;;;11.00;;
24901;SDS011;31328;51.402;0.016;2023-01-23T07:02:40;20.87;;;12.13;;
24901;SDS011;31328;51.402;0.016;2023-01-23T07:05:06;19.50;;;11.60;;
24901;SDS011;31328;51.402;0.016;2023-01-23T07:07:33;20.87;;;12.13;;
24901;SDS011;31328;51.402;0.016;2023-01-23T07:09:59;22.13;;;12.60;;
24901;SDS011;31328;51.402;0.016;2023-01-23T07:12:26;18.87;;;10.63;;
24901;SDS011;31328;51.402;0.016;2023-01-23T07:14:52;21.43;;;11.50;;
24901;SDS011;31328;51.402;0.016;2023-01-23T07:17:26;21.25;;;11.25;;
24901;SDS011;31328;51.402;0.016;2023-01-23T07:19:53;18.57;;;11.13;;
24901;SDS011;31328;51.402;0.016;2023-01-23T07:22:20;22.93;;;12.83;;
24901;SDS011;31328;51.402;0.016;2023-01-23T07:24:47;18.17;;;11.40;;
24901;SDS011;31328;51.402;0.016;2023-01-23T07:27:13;21.93;;;12.37;;
24901;SDS011;31328;51.402;0.016;2023-01-23T07:29:41;22.33;;;12.83;;
24901;SDS011;31328;51.402;0.016;2023-01-23T07:32:07;22.07;;;12.47;;
24901;SDS011;31328;51.402;0.016;2023-01-23T07:34:34;22.57;;;11.60;;
24901;SDS011;31328;51.402;0.016;2023-01-23T07:37:00;21.27;;;12.00;;
24901;SDS011;31328;51.402;0.016;2023-01-23T07:39:26;20.80;;;11.73;;
24901;SDS011;31328;51.402;0.016;2023-01-23T07:41:53;22.67;;;12.43;;
24901;SDS011;31328;51.402;0.016;2023-01-23T07:44:20;21.10;;;11.90;;
24901;SDS011;31328;51.402;0.016;2023-01-23T07:46:47;20.33;;;11.17;;
24901;SDS011;31328;51.402;0.016;2023-01-23T07:49:14;20.67;;;12.73;;
24901;SDS011;31328;51.402;0.016;2023-01-23T07:51:41;19.33;;;11.23;;
24901;SDS011;31328;51.402;0.016;2023-01-23T07:54:07;20.30;;;10.93;;
24901;SDS011;31328;51.402;0.016;2023-01-23T07:56:34;20.07;;;12.13;;
24901;SDS011;31328;51.402;0.016;2023-01-23T07:59:00;22.80;;;13.37;;
24901;SDS011;31328;51.402;0.016;2023-01-23T08:01:26;19.43;;;11.70;;
24901;SDS011;31328;51.402;0.016;2023-01-23T08:03:53;23.10;;;12.67;;
24901;SDS011;31328;51.402;0.016;2023-01-23T08:06:19;21.63;;;12.93;;
24901;SDS011;31328;51.402;0.016;2023-01-23T08:08:48;21.43;;;12.80;;
24901;SDS011;31328;51.402;0.016;2023-01-23T08:11:15;22.87;;;13.00;;
24901;SDS011;31328;51.402;0.016;2023-01-23T08:13:42;23.37;;;13.30;;
24901;SDS011;31328;51.402;0.016;2023-01-23T08:16:08;22.23;;;12.83;;
24901;SDS011;31328;51.402;0.016;2023-01-23T08:18:34;23.80;;;12.80;;
24901;SDS011;31328;51.402;0.016;2023-01-23T08:21:01;23.87;;;14.93;;
24901;SDS011;31328;51.402;0.016;2023-01-23T08:23:29;20.77;;;12.70;;
24901;SDS011;31328;51.402;0.016;2023-01-23T08:25:58;24.00;;;13.00;;
24901;SDS011;31328;51.402;0.016;2023-01-23T08:28:27;26.27;;;14.07;;
24901;SDS011;31328;51.402;0.016;2023-01-23T08:30:53;28.33;;;14.77;;
24901;SDS011;31328;51.402;0.016;2023-01-23T08:33:20;26.10;;;14.63;;
24901;SDS011;31328;51.402;0.016;2023-01-23T08:35:48;25.93;;;14.83;;
24901;SDS011;31328;51.402;0.016;2023-01-23T08:38:18;27.13;;;14.73;;
24901;SDS011;31328;51.402;0.016;2023-01-23T08:40:46;26.93;;;15.23;;
24901;SDS011;31328;51.402;0.016;2023-01-23T08:43:13;27.10;;;13.80;;
24901;SDS011;31328;51.402;0.016;2023-01-23T08:45:41;27.33;;;15.00;;
24901;SDS011;31328;51.402;0.016;2023-01-23T08:48:13;26.27;;;14.07;;
24901;SDS011;31328;51.402;0.016;2023-01-23T08:50:40;26.33;;;14.47;;
24901;SDS011;31328;51.402;0.016;2023-01-23T08:53:06;25.90;;;14.67;;
24901;SDS011;31328;51.402;0.016;2023-01-23T08:55:33;28.87;;;15.33;;
24901;SDS011;31328;51.402;0.016;2023-01-23T08:58:01;29.07;;;14.73;;
24901;SDS011;31328;51.402;0.016;2023-01-23T09:00:27;29.00;;;15.67;;
24901;SDS011;31328;51.402;0.016;2023-01-23T09:02:54;30.43;;;15.63;;
24901;SDS011;31328;51.402;0.016;2023-01-23T09:05:20;26.00;;;14.77;;
24901;SDS011;31328;51.402;0.016;2023-01-23T09:07:46;28.13;;;15.33;;
24901;SDS011;31328;51.402;0.016;2023-01-23T09:10:13;34.50;;;17.97;;
24901;SDS011;31328;51.402;0.016;2023-01-23T09:12:39;26.50;;;14.77;;
24901;SDS011;31328;51.402;0.016;2023-01-23T09:15:07;26.63;;;15.33;;
24901;SDS011;31328;51.402;0.016;2023-01-23T09:17:34;24.70;;;15.10;;
24901;SDS011;31328;51.402;0.016;2023-01-23T09:20:00;25.67;;;14.87;;
24901;SDS011;31328;51.402;0.016;2023-01-23T09:22:30;26.83;;;16.27;;
24901;SDS011;31328;51.402;0.016;2023-01-23T09:24:56;26.80;;;15.93;;
24901;SDS011;31328;51.402;0.016;2023-01-23T09:27:23;31.13;;;17.53;;
24901;SDS011;31328;51.402;0.016;2023-01-23T09:29:49;30.40;;;17.27;;
24901;SDS011;31328;51.402;0.016;2023-01-23T09:32:16;26.90;;;17.00;;
24901;SDS011;31328;51.402;0.016;2023-01-23T09:34:42;29.30;;;17.03;;
24901;SDS011;31328;51.402;0.016;2023-01-23T09:37:08;29.93;;;17.53;;
24901;SDS011;31328;51.402;0.016;2023-01-23T09:39:35;35.90;;;18.30;;
24901;SDS011;31328;51.402;0.016;2023-01-23T09:42:02;28.97;;;17.57;;
24901;SDS011;31328;51.402;0.016;2023-01-23T09:44:37;36.77;;;19.50;;
24901;SDS011;31328;51.402;0.016;2023-01-23T09:47:11;27.48;;;16.25;;
24901;SDS011;31328;51.402;0.016;2023-01-23T09:49:54;34.00;;;17.77;;
24901;SDS011;31328;51.402;0.016;2023-01-23T09:52:26;33.60;;;18.70;;
24901;SDS011;31328;51.402;0.016;2023-01-23T09:57:42;31.47;;;20.20;;
24901;SDS011;31328;51.402;0.016;2023-01-23T10:00:14;35.00;;;20.87;;
24901;SDS011;31328;51.402;0.016;2023-01-23T10:03:10;43.77;;;23.83;;
24901;SDS011;31328;51.402;0.016;2023-01-23T10:05:42;40.93;;;23.97;;
24901;SDS011;31328;51.402;0.016;2023-01-23T10:13:21;42.67;;;23.83;;
24901;SDS011;31328;51.402;0.016;2023-01-23T10:21:49;41.50;;;25.37;;
24901;SDS011;31328;51.402;0.016;2023-01-23T10:27:18;43.53;;;25.93;;
24901;SDS011;31328;51.402;0.016;2023-01-23T10:29:56;48.03;;;26.80;;
24901;SDS011;31328;51.402;0.016;2023-01-23T10:32:27;50.93;;;28.73;;
24901;SDS011;31328;51.402;0.016;2023-01-23T10:35:06;48.60;;;27.67;;
24901;SDS011;31328;51.402;0.016;2023-01-23T10:37:39;47.03;;;28.37;;
24901;SDS011;31328;51.402;0.016;2023-01-23T10:40:19;47.57;;;28.77;;
24901;SDS011;31328;51.402;0.016;2023-01-23T10:43:18;46.93;;;28.20;;
24901;SDS011;31328;51.402;0.016;2023-01-23T10:45:47;51.73;;;29.00;;
24901;SDS011;31328;51.402;0.016;2023-01-23T10:56:30;51.67;;;30.00;;
24901;SDS011;31328;51.402;0.016;2023-01-23T10:58:59;51.90;;;31.30;;
24901;SDS011;31328;51.402;0.016;2023-01-23T11:01:31;54.57;;;31.77;;
24901;SDS011;31328;51.402;0.016;2023-01-23T11:04:18;52.63;;;32.93;;
24901;SDS011;31328;51.402;0.016;2023-01-23T11:07:01;52.43;;;31.03;;
24901;SDS011;31328;51.402;0.016;2023-01-23T11:12:24;56.70;;;33.05;;
24901;SDS011;31328;51.402;0.016;2023-01-23T11:15:10;49.57;;;31.07;;
24901;SDS011;31328;51.402;0.016;2023-01-23T11:17:38;56.20;;;33.23;;
24901;SDS011;31328;51.402;0.016;2023-01-23T11:20:20;55.00;;;31.87;;
24901;SDS011;31328;51.402;0.016;2023-01-23T11:22:48;54.90;;;32.13;;
24901;SDS011;31328;51.402;0.016;2023-01-23T11:25:32;54.00;;;33.13;;
24901;SDS011;31328;51.402;0.016;2023-01-23T11:30:52;54.80;;;34.00;;
24901;SDS011;31328;51.402;0.016;2023-01-23T11:33:36;57.53;;;32.13;;
24901;SDS011;31328;51.402;0.016;2023-01-23T11:38:50;52.33;;;33.97;;
24901;SDS011;31328;51.402;0.016;2023-01-23T11:41:19;64.80;;;34.63;;
24901;SDS011;31328;51.402;0.016;2023-01-23T11:43:53;51.42;;;33.28;;
24901;SDS011;31328;51.402;0.016;2023-01-23T11:46:24;53.83;;;30.93;;
24901;SDS011;31328;51.402;0.016;2023-01-23T11:49:11;55.73;;;33.17;;
24901;SDS011;31328;51.402;0.016;2023-01-23T12:03:19;52.47;;;29.90;;
24901;SDS011;31328;51.402;0.016;2023-01-23T12:12:06;50.27;;;29.70;;
24901;SDS011;31328;51.402;0.016;2023-01-23T12:20:27;44.03;;;26.23;;
24901;SDS011;31328;51.402;0.016;2023-01-23T12:39:58;46.87;;;29.13;;
24901;SDS011;31328;51.402;0.016;2023-01-23T12:42:36;46.27;;;29.37;;
24901;SDS011;31328;51.402;0.016;2023-01-23T12:45:24;47.87;;;27.93;;
24901;SDS011;31328;51.402;0.016;2023-01-23T12:50:39;42.50;;;26.57;;
24901;SDS011;31328;51.402;0.016;2023-01-23T12:53:14;43.40;;;26.13;;
24901;SDS011;31328;51.402;0.016;2023-01-23T12:55:46;39.97;;;26.83;;
24901;SDS011;31328;51.402;0.016;2023-01-23T12:58:21;39.57;;;24.57;;
24901;SDS011;31328;51.402;0.016;2023-01-23T13:09:26;36.22;;;22.95;;
24901;SDS011;31328;51.402;0.016;2023-01-23T13:16:56;37.57;;;23.83;;
24901;SDS011;31328;51.402;0.016;2023-01-23T13:19:28;35.37;;;22.23;;
24901;SDS011;31328;51.402;0.016;2023-01-23T13:24:49;30.23;;;19.83;;
24901;SDS011;31328;51.402;0.016;2023-01-23T13:52:14;16.93;;;11.33;;
24901;SDS011;31328;51.402;0.016;2023-01-23T13:55:15;15.37;;;9.97;;
24901;SDS011;31328;51.402;0.016;2023-01-23T13:58:02;15.37;;;10.23;;
24901;SDS011;31328;51.402;0.016;2023-01-23T14:00:30;17.47;;;10.53;;
24901;SDS011;31328;51.402;0.016;2023-01-23T14:03:22;16.27;;;9.53;;
24901;SDS011;31328;51.402;0.016;2023-01-23T14:06:10;11.73;;;8.70;;
24901;SDS011;31328;51.402;0.016;2023-01-23T14:08:50;17.13;;;9.90;;
24901;SDS011;31328;51.402;0.016;2023-01-23T14:11:18;13.50;;;8.37;;
24901;SDS011;31328;51.402;0.016;2023-01-23T14:13:50;13.60;;;8.87;;
24901;SDS011;31328;51.402;0.016;2023-01-23T14:16:37;12.87;;;7.97;;
24901;SDS011;31328;51.402;0.016;2023-01-23T14:19:19;10.63;;;7.33;;
24901;SDS011;31328;51.402;0.016;2023-01-23T14:21:55;12.82;;;7.18;;
24901;SDS011;31328;51.402;0.016;2023-01-23T14:24:24;10.60;;;7.80;;
24901;SDS011;31328;51.402;0.016;2023-01-23T14:27:00;13.50;;;8.80;;
24901;SDS011;31328;51.402;0.016;2023-01-23T14:29:33;14.13;;;7.53;;
24901;SDS011;31328;51.402;0.016;2023-01-23T14:32:00;10.47;;;7.80;;
24901;SDS011;31328;51.402;0.016;2023-01-23T14:34:27;10.37;;;7.03;;
24901;SDS011;31328;51.402;0.016;2023-01-23T14:37:00;9.43;;;6.57;;
24901;SDS011;31328;51.402;0.016;2023-01-23T14:39:31;10.23;;;7.07;;
24901;SDS011;31328;51.402;0.016;2023-01-23T14:42:00;11.17;;;6.77;;
24901;SDS011;31328;51.402;0.016;2023-01-23T14:47:09;9.27;;;6.80;;
24901;SDS011;31328;51.402;0.016;2023-01-23T14:49:50;9.63;;;5.53;;
24901;SDS011;31328;51.402;0.016;2023-01-23T14:52:21;9.13;;;5.93;;
24901;SDS011;31328;51.402;0.016;2023-01-23T14:54:56;10.80;;;6.80;;
24901;SDS011;31328;51.402;0.016;2023-01-23T14:57:24;10.60;;;6.50;;
24901;SDS011;31328;51.402;0.016;2023-01-23T14:59:52;10.23;;;7.03;;
24901;SDS011;31328;51.402;0.016;2023-01-23T15:05:15;11.13;;;7.80;;
24901;SDS011;31328;51.402;0.016;2023-01-23T15:07:57;13.37;;;8.00;;
24901;SDS011;31328;51.402;0.016;2023-01-23T15:10:43;10.53;;;7.63;;
24901;SDS011;31328;51.402;0.016;2023-01-23T15:13:23;11.73;;;7.90;;
24901;SDS011;31328;51.402;0.016;2023-01-23T15:15:59;11.52;;;7.47;;
24901;SDS011;31328;51.402;0.016;2023-01-23T15:18:31;10.30;;;7.43;;
24901;SDS011;31328;51.402;0.016;2023-01-23T15:21:03;11.23;;;8.00;;
24901;SDS011;31328;51.402;0.016;2023-01-23T15:23:32;13.50;;;7.80;;
24901;SDS011;31328;51.402;0.016;2023-01-23T15:28:52;10.83;;;7.00;;
24901;SDS011;31328;51.402;0.016;2023-01-23T15:31:40;10.60;;;7.40;;
24901;SDS011;31328;51.402;0.016;2023-01-23T15:36:56;11.23;;;6.93;;
24901;SDS011;31328;51.402;0.016;2023-01-23T15:44:36;12.73;;;7.67;;
24901;SDS011;31328;51.402;0.016;2023-01-23T15:47:03;11.77;;;8.43;;
24901;SDS011;31328;51.402;0.016;2023-01-23T15:49:31;14.17;;;8.20;;
24901;SDS011;31328;51.402;0.016;2023-01-23T15:51:59;10.17;;;7.43;;
24901;SDS011;31328;51.402;0.016;2023-01-23T15:54:31;11.50;;;7.90;;
24901;SDS011;31328;51.402;0.016;2023-01-23T15:56:59;10.53;;;7.00;;
24901;SDS011;31328;51.402;0.016;2023-01-23T15:59:25;11.20;;;7.73;;
24901;SDS011;31328;51.402;0.016;2023-01-23T16:01:52;10.40;;;6.83;;
24901;SDS011;31328;51.402;0.016;2023-01-23T16:04:18;12.53;;;7.63;;
24901;SDS011;31328;51.402;0.016;2023-01-23T16:06:45;10.87;;;7.80;;
24901;SDS011;31328;51.402;0.016;2023-01-23T16:09:12;12.10;;;7.63;;
24901;SDS011;31328;51.402;0.016;2023-01-23T16:11:45;11.23;;;6.83;;
24901;SDS011;31328;51.402;0.016;2023-01-23T16:14:14;8.90;;;6.90;;
24901;SDS011;31328;51.402;0.016;2023-01-23T16:16:42;13.13;;;8.00;;
24901;SDS011;31328;51.402;0.016;2023-01-23T16:19:08;14.37;;;8.13;;
24901;SDS011;31328;51.402;0.016;2023-01-23T16:21:35;12.27;;;6.63;;
24901;SDS011;31328;51.402;0.016;2023-01-23T16:24:01;12.83;;;7.17;;
24901;SDS011;31328;51.402;0.016;2023-01-23T16:26:28;9.43;;;6.63;;
24901;SDS011;31328;51.402;0.016;2023-01-23T16:28:55;12.27;;;6.97;;
24901;SDS011;31328;51.402;0.016;2023-01-23T16:31:22;13.33;;;7.33;;
24901;SDS011;31328;51.402;0.016;2023-01-23T16:33:48;12.70;;;5.97;;
24901;SDS011;31328;51.402;0.016;2023-01-23T16:36:15;10.57;;;6.43;;
24901;SDS011;31328;51.402;0.016;2023-01-23T16:38:45;8.90;;;6.37;;
24901;SDS011;31328;51.402;0.016;2023-01-23T16:41:15;8.90;;;6.47;;
24901;SDS011;31328;51.402;0.016;2023-01-23T16:43:42;9.43;;;6.47;;
24901;SDS011;31328;51.402;0.016;2023-01-23T16:46:08;13.20;;;6.97;;
24901;SDS011;31328;51.402;0.016;2023-01-23T16:48:35;15.40;;;6.63;;
24901;SDS011;31328;51.402;0.016;2023-01-23T16:51:04;11.70;;;6.03;;
24901;SDS011;31328;51.402;0.016;2023-01-23T16:53:40;10.83;;;7.27;;
24901;SDS011;31328;51.402;0.016;2023-01-23T16:56:22;10.87;;;6.20;;
24901;SDS011;31328;51.402;0.016;2023-01-23T16:58:53;10.23;;;6.80;;
24901;SDS011;31328;51.402;0.016;2023-01-23T17:01:20;9.83;;;6.23;;
24901;SDS011;31328;51.402;0.016;2023-01-23T17:03:49;10.57;;;6.27;;
24901;SDS011;31328;51.402;0.016;2023-01-23T17:06:20;9.37;;;6.20;;
24901;SDS011;31328;51.402;0.016;2023-01-23T17:08:47;11.17;;;6.57;;